Time,TemperatureF,DewpointF,PressureIn,WindDirection,WindDirectionDegrees,WindSpeedMPH,WindSpeedGustMPH,Humidity,HourlyPrecipIn,Conditions,Clouds,dailyrainin,SoftwareType,DateUTC
2013-01-31 00:02:00,29.3,27.3,29.90,NE,45,0.0,0.0,92,0.00,,,0.00,Weather View 32 v70,2013-01-31 09:02:00,
2013-01-31 00:07:00,29.3,27.3,29.91,NE,45,0.0,0.0,92,0.00,,,0.00,Weather View 32 v70,2013-01-31 09:07:00,
2013-01-31 00:12:00,29.3,27.3,29.91,NE,45,0.0,0.0,92,0.00,,,0.00,Weather View 32 v70,2013-01-31 09:12:00,
2013-01-31 00:17:00,29.7,27.6,29.91,NE,45,0.0,0.0,92,0.00,,,0.00,Weather View 32 v70,2013-01-31 09:17:00,
2013-01-31 00:22:00,30.0,28.0,29.91,NE,45,0.0,0.0,92,0.00,,,0.00,Weather View 32 v70,2013-01-31 09:22:00,
2013-01-31 00:28:00,29.8,27.8,29.91,NE,45,0.0,0.0,92,0.00,,,0.00,Weather View 32 v70,2013-01-31 09:28:00,
2013-01-31 00:32:00,30.0,28.0,29.91,NE,45,0.0,0.0,92,0.00,,,0.00,Weather View 32 v70,2013-01-31 09:32:00,
2013-01-31 00:38:00,30.2,28.2,29.91,NE,45,0.0,0.0,92,0.00,,,0.00,Weather View 32 v70,2013-01-31 09:38:00,
2013-01-31 00:43:00,30.4,28.3,29.91,NE,45,0.0,0.0,92,0.00,,,0.00,Weather View 32 v70,2013-01-31 09:43:00,
2013-01-31 00:48:00,30.4,28.3,29.91,NE,45,0.0,0.0,92,0.00,,,0.00,Weather View 32 v70,2013-01-31 09:48:00,
2013-01-31 00:53:00,30.4,28.3,29.91,NE,45,0.0,0.0,92,0.00,,,0.00,Weather View 32 v70,2013-01-31 09:53:00,
2013-01-31 00:58:00,30.7,28.7,29.91,NE,45,0.0,0.0,92,0.00,,,0.00,Weather View 32 v70,2013-01-31 09:58:00,
2013-01-31 01:03:00,30.6,28.5,29.91,NE,45,0.0,0.0,92,0.00,,,0.00,Weather View 32 v70,2013-01-31 10:03:00,
2013-01-31 01:08:00,30.6,28.5,29.92,NE,45,0.0,0.0,92,0.00,,,0.00,Weather View 32 v70,2013-01-31 10:08:00,
2013-01-31 01:13:00,30.7,28.7,29.92,NE,45,0.0,0.0,92,0.00,,,0.00,Weather View 32 v70,2013-01-31 10:13:00,
2013-01-31 01:18:00,30.7,28.7,29.92,NE,45,0.0,0.0,92,0.00,,,0.00,Weather View 32 v70,2013-01-31 10:18:00,
2013-01-31 01:23:00,30.7,28.7,29.92,NE,45,0.0,0.0,92,0.00,,,0.00,Weather View 32 v70,2013-01-31 10:23:00,
2013-01-31 01:27:00,31.1,29.0,29.92,NE,45,0.0,0.0,92,0.00,,,0.00,Weather View 32 v70,2013-01-31 10:27:00,
2013-01-31 01:32:00,31.1,29.0,29.92,NE,45,0.0,0.0,92,0.00,,,0.00,Weather View 32 v70,2013-01-31 10:32:00,
2013-01-31 01:37:00,31.1,29.0,29.92,NE,45,0.0,0.0,92,0.00,,,0.00,Weather View 32 v70,2013-01-31 10:37:00,
2013-01-31 01:43:00,31.3,29.2,29.92,NE,45,0.0,0.0,92,0.00,,,0.00,Weather View 32 v70,2013-01-31 10:43:00,
2013-01-31 01:48:00,31.5,29.4,29.92,NE,45,0.0,0.0,92,0.00,,,0.00,Weather View 32 v70,2013-01-31 10:48:00,
2013-01-31 01:53:00,31.5,29.4,29.92,NE,45,0.0,0.0,92,0.00,,,0.00,Weather View 32 v70,2013-01-31 10:53:00,
2013-01-31 01:58:00,31.5,29.4,29.92,NE,45,0.0,0.0,92,0.00,,,0.00,Weather View 32 v70,2013-01-31 10:58:00,
2013-01-31 02:03:00,31.5,29.4,29.92,NE,45,0.0,0.0,92,0.00,,,0.00,Weather View 32 v70,2013-01-31 11:03:00,
2013-01-31 02:08:00,31.5,29.4,29.92,NE,45,0.0,0.0,92,0.00,,,0.00,Weather View 32 v70,2013-01-31 11:08:00,
2013-01-31 02:13:00,31.8,29.8,29.92,NE,45,0.0,0.0,92,0.00,,,0.00,Weather View 32 v70,2013-01-31 11:13:00,
2013-01-31 02:18:00,31.8,30.0,29.92,NE,45,0.0,0.0,93,0.00,,,0.00,Weather View 32 v70,2013-01-31 11:18:00,
2013-01-31 02:23:00,31.6,29.6,29.92,NE,45,0.0,0.0,92,0.00,,,0.00,Weather View 32 v70,2013-01-31 11:23:00,
2013-01-31 02:28:00,31.6,29.6,29.93,NE,45,0.0,0.0,92,0.00,,,0.00,Weather View 32 v70,2013-01-31 11:28:00,
2013-01-31 02:33:00,31.8,30.0,29.93,NE,45,0.0,0.0,93,0.00,,,0.00,Weather View 32 v70,2013-01-31 11:33:00,
2013-01-31 02:38:00,31.8,30.0,29.93,NE,45,0.0,0.0,93,0.00,,,0.00,Weather View 32 v70,2013-01-31 11:38:00,
2013-01-31 02:43:00,31.8,30.0,29.93,NE,45,0.0,0.0,93,0.00,,,0.00,Weather View 32 v70,2013-01-31 11:43:00,
2013-01-31 02:48:00,31.8,30.0,29.93,NE,45,0.0,0.0,93,0.00,,,0.00,Weather View 32 v70,2013-01-31 11:48:00,
2013-01-31 02:53:00,31.8,30.0,29.93,NE,45,0.0,0.0,93,0.00,,,0.00,Weather View 32 v70,2013-01-31 11:53:00,
2013-01-31 02:58:00,31.8,30.0,29.93,NE,45,0.0,0.0,93,0.00,,,0.00,Weather View 32 v70,2013-01-31 11:58:00,
2013-01-31 03:03:00,31.8,30.0,29.93,NE,45,0.0,0.0,93,0.00,,,0.00,Weather View 32 v70,2013-01-31 12:03:00,
2013-01-31 03:08:00,31.8,30.0,29.94,NE,45,0.0,0.0,93,0.00,,,0.00,Weather View 32 v70,2013-01-31 12:08:00,
2013-01-31 03:13:00,31.8,30.0,29.94,NE,45,0.0,0.0,93,0.00,,,0.00,Weather View 32 v70,2013-01-31 12:13:00,
2013-01-31 03:18:00,32.2,30.4,29.94,NE,45,0.0,0.0,93,0.00,,,0.00,Weather View 32 v70,2013-01-31 12:18:00,
2013-01-31 03:23:00,32.0,30.2,29.94,NE,45,0.0,0.0,93,0.00,,,0.00,Weather View 32 v70,2013-01-31 12:23:00,
2013-01-31 03:28:00,32.0,30.2,29.94,NE,45,0.0,0.0,93,0.00,,,0.00,Weather View 32 v70,2013-01-31 12:28:00,
2013-01-31 03:33:00,32.0,30.2,29.94,NE,45,0.0,0.0,93,0.00,,,0.00,Weather View 32 v70,2013-01-31 12:33:00,
2013-01-31 03:38:00,32.0,30.2,29.94,NE,45,0.0,0.0,93,0.00,,,0.00,Weather View 32 v70,2013-01-31 12:38:00,
2013-01-31 03:43:00,32.2,30.4,29.94,NE,45,0.0,0.0,93,0.00,,,0.00,Weather View 32 v70,2013-01-31 12:43:00,
2013-01-31 03:48:00,32.2,30.4,29.94,NE,45,0.0,0.0,93,0.00,,,0.00,Weather View 32 v70,2013-01-31 12:48:00,
2013-01-31 03:53:00,32.2,30.4,29.94,NE,45,0.0,0.0,93,0.00,,,0.00,Weather View 32 v70,2013-01-31 12:53:00,
2013-01-31 03:58:00,32.0,30.2,29.94,NE,45,0.0,0.0,93,0.00,,,0.00,Weather View 32 v70,2013-01-31 12:58:00,
2013-01-31 04:03:00,32.2,30.4,29.94,NE,45,0.0,0.0,93,0.00,,,0.00,Weather View 32 v70,2013-01-31 13:03:00,
2013-01-31 04:08:00,32.2,30.4,29.94,NE,45,0.0,0.0,93,0.00,,,0.00,Weather View 32 v70,2013-01-31 13:08:00,
2013-01-31 04:13:00,32.2,30.4,29.94,NE,45,0.0,0.0,93,0.00,,,0.00,Weather View 32 v70,2013-01-31 13:13:00,
2013-01-31 04:18:00,32.2,30.4,29.94,NE,45,0.0,0.0,93,0.00,,,0.00,Weather View 32 v70,2013-01-31 13:18:00,
2013-01-31 04:23:00,32.2,30.4,29.94,NE,45,0.0,0.0,93,0.00,,,0.00,Weather View 32 v70,2013-01-31 13:23:00,
2013-01-31 04:28:00,32.2,30.4,29.95,NE,45,0.0,0.0,93,0.00,,,0.00,Weather View 32 v70,2013-01-31 13:28:00,
2013-01-31 04:33:00,32.2,30.4,29.95,NE,45,0.0,0.0,93,0.00,,,0.00,Weather View 32 v70,2013-01-31 13:33:00,
2013-01-31 04:38:00,32.0,30.2,29.95,NE,45,0.0,0.0,93,0.00,,,0.00,Weather View 32 v70,2013-01-31 13:38:00,
2013-01-31 04:43:00,32.0,30.2,29.95,NE,45,0.0,0.0,93,0.00,,,0.00,Weather View 32 v70,2013-01-31 13:43:00,
2013-01-31 04:48:00,32.0,30.2,29.95,NE,45,0.0,0.0,93,0.00,,,0.00,Weather View 32 v70,2013-01-31 13:48:00,
2013-01-31 04:53:00,32.0,30.2,29.95,NE,45,0.0,0.0,93,0.00,,,0.00,Weather View 32 v70,2013-01-31 13:53:00,
2013-01-31 04:58:00,32.0,30.2,29.95,NE,45,0.0,0.0,93,0.00,,,0.00,Weather View 32 v70,2013-01-31 13:58:00,
2013-01-31 05:03:00,32.0,30.2,29.95,NE,45,0.0,0.0,93,0.00,,,0.00,Weather View 32 v70,2013-01-31 14:03:00,
2013-01-31 05:08:00,32.0,30.2,29.95,NE,45,0.0,0.0,93,0.00,,,0.00,Weather View 32 v70,2013-01-31 14:08:00,
2013-01-31 05:13:00,32.0,30.2,29.95,NE,45,0.0,0.0,93,0.00,,,0.00,Weather View 32 v70,2013-01-31 14:13:00,
2013-01-31 05:18:00,32.0,30.2,29.95,NE,45,0.0,0.0,93,0.00,,,0.00,Weather View 32 v70,2013-01-31 14:18:00,
2013-01-31 05:23:00,32.0,30.2,29.95,NE,45,0.0,0.0,93,0.00,,,0.00,Weather View 32 v70,2013-01-31 14:23:00,
2013-01-31 05:28:00,32.0,30.2,29.96,NE,45,0.0,0.0,93,0.00,,,0.00,Weather View 32 v70,2013-01-31 14:28:00,
2013-01-31 05:33:00,32.0,30.2,29.96,NE,45,0.0,0.0,93,0.00,,,0.00,Weather View 32 v70,2013-01-31 14:33:00,
2013-01-31 05:38:00,32.2,30.4,29.96,NE,45,0.0,0.0,93,0.00,,,0.00,Weather View 32 v70,2013-01-31 14:38:00,
2013-01-31 05:43:00,32.2,30.4,29.96,NE,45,0.0,0.0,93,0.00,,,0.00,Weather View 32 v70,2013-01-31 14:43:00,
2013-01-31 05:48:00,32.2,30.4,29.96,NE,45,0.0,0.0,93,0.00,,,0.00,Weather View 32 v70,2013-01-31 14:48:00,
2013-01-31 05:53:00,32.2,30.4,29.96,NE,45,0.0,0.0,93,0.00,,,0.00,Weather View 32 v70,2013-01-31 14:53:00,
2013-01-31 05:58:00,32.2,30.4,29.96,NE,45,0.0,0.0,93,0.00,,,0.00,Weather View 32 v70,2013-01-31 14:58:00,
2013-01-31 06:03:00,32.2,30.4,29.96,NE,45,0.0,0.0,93,0.00,,,0.00,Weather View 32 v70,2013-01-31 15:03:00,
2013-01-31 06:08:00,32.2,30.4,29.97,NE,45,0.0,0.0,93,0.00,,,0.00,Weather View 32 v70,2013-01-31 15:08:00,
2013-01-31 06:13:00,32.2,30.4,29.97,NE,45,0.0,0.0,93,0.00,,,0.00,Weather View 32 v70,2013-01-31 15:13:00,
2013-01-31 06:18:00,32.2,30.4,29.97,NE,45,0.0,0.0,93,0.00,,,0.00,Weather View 32 v70,2013-01-31 15:18:00,
2013-01-31 06:23:00,32.2,30.4,29.97,NE,45,0.0,0.0,93,0.00,,,0.00,Weather View 32 v70,2013-01-31 15:23:00,
2013-01-31 06:28:00,32.2,30.4,29.97,NE,45,0.0,0.0,93,0.00,,,0.00,Weather View 32 v70,2013-01-31 15:28:00,
2013-01-31 06:33:00,32.0,30.2,29.97,NE,45,0.0,0.0,93,0.00,,,0.00,Weather View 32 v70,2013-01-31 15:33:00,
2013-01-31 06:38:00,32.2,30.4,29.97,NE,45,0.0,0.0,93,0.00,,,0.00,Weather View 32 v70,2013-01-31 15:38:00,
2013-01-31 06:43:00,32.2,30.4,29.97,NE,45,0.0,0.0,93,0.00,,,0.00,Weather View 32 v70,2013-01-31 15:43:00,
2013-01-31 06:48:00,32.0,30.2,29.97,NE,45,0.0,0.0,93,0.00,,,0.00,Weather View 32 v70,2013-01-31 15:48:00,
2013-01-31 06:53:00,32.0,30.2,29.97,NE,45,0.0,0.0,93,0.00,,,0.00,Weather View 32 v70,2013-01-31 15:53:00,
2013-01-31 06:58:00,32.0,30.2,29.97,NE,45,0.0,0.0,93,0.00,,,0.00,Weather View 32 v70,2013-01-31 15:58:00,
2013-01-31 07:03:00,32.0,30.2,29.97,NE,45,0.0,0.0,93,0.00,,,0.00,Weather View 32 v70,2013-01-31 16:03:00,
2013-01-31 07:08:00,32.0,30.2,29.98,NE,45,0.0,0.0,93,0.00,,,0.00,Weather View 32 v70,2013-01-31 16:08:00,
2013-01-31 07:13:00,32.0,30.2,29.98,NE,45,0.0,0.0,93,0.00,,,0.00,Weather View 32 v70,2013-01-31 16:13:00,
2013-01-31 07:18:00,32.2,30.4,29.98,NE,45,0.0,0.0,93,0.00,,,0.00,Weather View 32 v70,2013-01-31 16:18:00,
2013-01-31 07:23:00,32.2,30.4,29.98,NE,45,0.0,0.0,93,0.00,,,0.00,Weather View 32 v70,2013-01-31 16:23:00,
2013-01-31 07:28:00,32.2,30.4,29.99,NE,45,0.0,0.0,93,0.00,,,0.00,Weather View 32 v70,2013-01-31 16:28:00,
2013-01-31 07:33:00,32.2,30.4,29.99,NE,45,0.0,0.0,93,0.00,,,0.00,Weather View 32 v70,2013-01-31 16:33:00,
2013-01-31 07:38:00,32.2,30.4,29.99,NE,45,0.0,0.0,93,0.00,,,0.00,Weather View 32 v70,2013-01-31 16:38:00,
2013-01-31 07:43:00,32.0,30.2,29.99,NE,45,0.0,0.0,93,0.00,,,0.00,Weather View 32 v70,2013-01-31 16:43:00,
2013-01-31 07:48:00,32.0,30.2,29.98,NE,45,0.0,0.0,93,0.00,,,0.00,Weather View 32 v70,2013-01-31 16:48:00,
2013-01-31 07:53:00,32.2,30.4,29.98,NE,45,0.0,0.0,93,0.00,,,0.00,Weather View 32 v70,2013-01-31 16:53:00,
2013-01-31 07:58:00,31.8,30.0,29.98,NE,45,0.0,0.0,93,0.00,,,0.00,Weather View 32 v70,2013-01-31 16:58:00,
2013-01-31 08:03:00,31.8,30.0,29.98,NE,45,0.0,0.0,93,0.00,,,0.00,Weather View 32 v70,2013-01-31 17:03:00,
2013-01-31 08:08:00,31.8,30.0,29.99,NE,45,0.0,0.0,93,0.00,,,0.00,Weather View 32 v70,2013-01-31 17:08:00,
2013-01-31 08:13:00,31.8,30.0,29.99,NE,45,0.0,0.0,93,0.00,,,0.00,Weather View 32 v70,2013-01-31 17:13:00,
2013-01-31 08:18:00,31.8,30.0,29.99,NE,45,0.0,0.0,93,0.00,,,0.00,Weather View 32 v70,2013-01-31 17:18:00,
2013-01-31 08:23:00,31.8,30.0,29.99,NE,45,0.0,0.0,93,0.00,,,0.00,Weather View 32 v70,2013-01-31 17:23:00,
2013-01-31 08:28:00,31.8,30.0,29.98,NE,45,0.0,0.0,93,0.00,,,0.00,Weather View 32 v70,2013-01-31 17:28:00,
2013-01-31 08:33:00,31.8,30.0,29.98,NE,45,0.0,0.0,93,0.00,,,0.00,Weather View 32 v70,2013-01-31 17:33:00,
2013-01-31 08:38:00,31.5,29.4,29.98,NE,45,0.0,0.0,92,0.00,,,0.00,Weather View 32 v70,2013-01-31 17:38:00,
2013-01-31 08:43:00,31.8,30.0,29.98,NE,45,0.0,0.0,93,0.00,,,0.00,Weather View 32 v70,2013-01-31 17:43:00,
2013-01-31 08:48:00,31.5,29.4,30.00,NE,45,0.0,0.0,92,0.00,,,0.00,Weather View 32 v70,2013-01-31 17:48:00,
2013-01-31 08:54:00,31.8,30.0,30.00,NE,45,0.0,0.0,93,0.00,,,0.00,Weather View 32 v70,2013-01-31 17:54:00,
2013-01-31 08:59:00,31.8,30.0,30.00,NE,45,0.0,0.0,93,0.00,,,0.00,Weather View 32 v70,2013-01-31 17:59:00,
2013-01-31 09:04:00,31.8,30.0,30.00,NE,45,0.0,0.0,93,0.00,,,0.00,Weather View 32 v70,2013-01-31 18:04:00,
2013-01-31 09:09:00,31.8,30.0,30.02,NE,45,0.0,0.0,93,0.00,,,0.00,Weather View 32 v70,2013-01-31 18:09:00,
2013-01-31 09:14:00,31.8,30.0,30.02,NE,45,0.0,0.0,93,0.00,,,0.00,Weather View 32 v70,2013-01-31 18:14:00,
2013-01-31 09:19:00,31.6,29.6,30.02,NE,45,0.0,0.0,92,0.00,,,0.00,Weather View 32 v70,2013-01-31 18:19:00,
2013-01-31 09:24:00,31.8,30.0,30.02,NE,45,0.0,0.0,93,0.00,,,0.00,Weather View 32 v70,2013-01-31 18:24:00,
2013-01-31 09:29:00,31.6,29.6,30.02,NE,45,0.0,0.0,92,0.00,,,0.00,Weather View 32 v70,2013-01-31 18:29:00,
2013-01-31 09:34:00,31.8,30.0,30.02,NE,45,0.0,0.0,93,0.00,,,0.00,Weather View 32 v70,2013-01-31 18:34:00,
2013-01-31 09:38:00,31.8,30.0,30.02,NE,45,0.0,0.0,93,0.00,,,0.00,Weather View 32 v70,2013-01-31 18:38:00,
2013-01-31 09:44:00,31.8,30.0,30.02,NE,45,0.0,0.0,93,0.00,,,0.00,Weather View 32 v70,2013-01-31 18:44:00,
2013-01-31 09:49:00,31.5,29.4,30.06,NE,45,0.0,0.0,92,0.00,,,0.00,Weather View 32 v70,2013-01-31 18:49:00,
2013-01-31 09:53:00,31.5,29.4,30.06,NE,45,0.0,0.0,92,0.00,,,0.00,Weather View 32 v70,2013-01-31 18:53:00,
2013-01-31 09:58:00,31.5,29.4,30.06,NE,45,0.0,0.0,92,0.00,,,0.00,Weather View 32 v70,2013-01-31 18:58:00,
2013-01-31 10:03:00,31.8,30.0,30.07,NE,45,0.0,0.0,93,0.00,,,0.00,Weather View 32 v70,2013-01-31 19:03:00,
2013-01-31 10:08:00,31.8,30.0,30.07,NE,45,0.0,0.0,93,0.00,,,0.00,Weather View 32 v70,2013-01-31 19:08:00,
2013-01-31 10:13:00,31.8,30.0,30.07,NE,45,0.0,0.0,93,0.00,,,0.00,Weather View 32 v70,2013-01-31 19:13:00,
2013-01-31 10:18:00,31.8,30.0,30.07,NE,45,0.0,0.0,93,0.00,,,0.00,Weather View 32 v70,2013-01-31 19:18:00,
2013-01-31 10:23:00,31.8,30.0,30.08,NE,45,0.0,0.0,93,0.00,,,0.00,Weather View 32 v70,2013-01-31 19:23:00,
2013-01-31 10:28:00,31.8,30.0,30.08,NE,45,0.0,0.0,93,0.00,,,0.00,Weather View 32 v70,2013-01-31 19:28:00,
2013-01-31 10:33:00,31.8,30.0,30.08,NE,45,0.0,0.0,93,0.00,,,0.00,Weather View 32 v70,2013-01-31 19:33:00,
2013-01-31 10:38:00,31.8,30.0,30.08,NE,45,0.0,0.0,93,0.00,,,0.00,Weather View 32 v70,2013-01-31 19:38:00,
2013-01-31 10:43:00,31.8,30.0,30.08,NE,45,0.0,0.0,93,0.00,,,0.00,Weather View 32 v70,2013-01-31 19:43:00,
2013-01-31 10:48:00,32.0,30.2,30.08,NE,45,0.0,0.0,93,0.00,,,0.00,Weather View 32 v70,2013-01-31 19:48:00,
2013-01-31 10:53:00,32.2,30.4,30.08,NE,45,0.0,0.0,93,0.00,,,0.00,Weather View 32 v70,2013-01-31 19:53:00,
2013-01-31 10:58:00,32.5,30.7,30.08,NE,45,0.0,0.0,93,0.00,,,0.00,Weather View 32 v70,2013-01-31 19:58:00,
2013-01-31 11:03:00,32.7,30.9,30.08,NE,45,0.0,0.0,93,0.00,,,0.00,Weather View 32 v70,2013-01-31 20:03:00,
2013-01-31 11:08:00,32.7,30.9,30.09,NE,45,0.0,0.0,93,0.00,,,0.00,Weather View 32 v70,2013-01-31 20:08:00,
2013-01-31 11:14:00,33.1,31.3,30.09,NE,45,0.0,0.0,93,0.00,,,0.00,Weather View 32 v70,2013-01-31 20:14:00,
2013-01-31 11:19:00,33.3,31.5,30.09,NE,45,0.0,0.0,93,0.00,,,0.00,Weather View 32 v70,2013-01-31 20:19:00,
2013-01-31 11:24:00,33.3,31.5,30.09,NE,45,0.0,0.0,93,0.00,,,0.00,Weather View 32 v70,2013-01-31 20:24:00,
2013-01-31 11:29:00,33.3,31.2,30.09,NE,45,0.0,0.0,92,0.00,,,0.00,Weather View 32 v70,2013-01-31 20:29:00,
2013-01-31 11:34:00,33.3,31.2,30.09,NE,45,0.0,0.0,92,0.00,,,0.00,Weather View 32 v70,2013-01-31 20:34:00,
2013-01-31 11:39:00,33.3,31.2,30.09,NE,45,0.0,0.0,92,0.00,,,0.00,Weather View 32 v70,2013-01-31 20:39:00,
2013-01-31 11:44:00,33.3,31.2,30.10,NE,45,0.0,0.0,92,0.00,,,0.00,Weather View 32 v70,2013-01-31 20:44:00,
2013-01-31 11:49:00,33.6,31.5,30.10,NE,45,0.0,0.0,92,0.00,,,0.00,Weather View 32 v70,2013-01-31 20:49:00,
2013-01-31 11:54:00,33.4,31.4,30.10,NE,45,1.0,0.0,92,0.00,,,0.00,Weather View 32 v70,2013-01-31 20:54:00,
2013-01-31 11:59:00,33.4,31.4,30.10,NE,45,1.0,1.0,92,0.00,,,0.00,Weather View 32 v70,2013-01-31 20:59:00,
2013-01-31 12:04:00,33.3,31.2,30.12,NE,45,1.0,1.0,92,0.00,,,0.00,Weather View 32 v70,2013-01-31 21:04:00,
2013-01-31 12:09:00,33.3,31.2,30.12,NE,45,1.0,1.0,92,0.00,,,0.00,Weather View 32 v70,2013-01-31 21:09:00,
2013-01-31 12:14:00,33.3,31.2,30.12,NE,45,1.0,1.0,92,0.00,,,0.00,Weather View 32 v70,2013-01-31 21:14:00,
2013-01-31 12:19:00,33.3,31.2,30.12,NE,45,1.0,1.0,92,0.00,,,0.00,Weather View 32 v70,2013-01-31 21:19:00,
2013-01-31 12:24:00,33.6,31.5,30.12,NE,45,0.0,1.0,92,0.00,,,0.00,Weather View 32 v70,2013-01-31 21:24:00,
2013-01-31 12:29:00,33.6,31.5,30.12,NE,45,0.0,1.0,92,0.00,,,0.00,Weather View 32 v70,2013-01-31 21:29:00,
2013-01-31 12:34:00,34.0,31.9,30.12,NE,45,0.0,1.0,92,0.00,,,0.00,Weather View 32 v70,2013-01-31 21:34:00,
2013-01-31 12:39:00,34.0,31.9,30.12,NE,45,0.0,1.0,92,0.00,,,0.00,Weather View 32 v70,2013-01-31 21:39:00,
2013-01-31 12:44:00,34.0,31.9,30.12,NE,45,0.0,1.0,92,0.00,,,0.00,Weather View 32 v70,2013-01-31 21:44:00,
2013-01-31 12:49:00,34.0,31.9,30.12,NE,45,0.0,1.0,92,0.00,,,0.00,Weather View 32 v70,2013-01-31 21:49:00,
2013-01-31 12:54:00,33.8,31.7,30.12,NE,45,1.0,1.0,92,0.00,,,0.00,Weather View 32 v70,2013-01-31 21:54:00,
2013-01-31 12:59:00,33.6,31.3,30.12,NE,45,1.0,1.0,91,0.00,,,0.00,Weather View 32 v70,2013-01-31 21:59:00,
2013-01-31 13:04:00,33.6,31.3,30.12,NE,45,1.0,1.0,91,0.00,,,0.00,Weather View 32 v70,2013-01-31 22:04:00,
2013-01-31 13:09:00,33.6,31.3,30.12,NE,45,1.0,1.0,91,0.00,,,0.00,Weather View 32 v70,2013-01-31 22:09:00,
2013-01-31 13:14:00,33.4,31.1,30.12,NE,45,0.0,1.0,91,0.00,,,0.00,Weather View 32 v70,2013-01-31 22:14:00,
2013-01-31 13:19:00,33.3,30.9,30.12,NE,45,1.0,1.0,91,0.00,,,0.00,Weather View 32 v70,2013-01-31 22:19:00,
2013-01-31 13:24:00,33.3,30.9,30.12,NE,45,0.0,1.0,91,0.00,,,0.00,Weather View 32 v70,2013-01-31 22:24:00,
2013-01-31 13:29:00,33.4,31.1,30.13,NE,45,0.0,1.0,91,0.00,,,0.00,Weather View 32 v70,2013-01-31 22:29:00,
2013-01-31 13:34:00,33.4,31.1,30.13,NE,45,0.0,1.0,91,0.00,,,0.00,Weather View 32 v70,2013-01-31 22:34:00,
2013-01-31 13:39:00,33.3,30.9,30.13,NE,45,0.0,1.0,91,0.00,,,0.00,Weather View 32 v70,2013-01-31 22:39:00,
2013-01-31 13:44:00,33.4,31.1,30.14,NE,45,0.0,1.0,91,0.00,,,0.00,Weather View 32 v70,2013-01-31 22:44:00,
2013-01-31 13:49:00,33.4,31.1,30.14,NE,45,0.0,1.0,91,0.00,,,0.00,Weather View 32 v70,2013-01-31 22:49:00,
2013-01-31 13:54:00,33.3,30.9,30.14,NE,45,0.0,1.0,91,0.00,,,0.00,Weather View 32 v70,2013-01-31 22:54:00,
2013-01-31 13:59:00,33.1,30.7,30.14,NE,45,0.0,1.0,91,0.00,,,0.00,Weather View 32 v70,2013-01-31 22:59:00,
2013-01-31 14:04:00,33.3,30.9,30.14,NE,45,0.0,1.0,91,0.00,,,0.00,Weather View 32 v70,2013-01-31 23:04:00,
2013-01-31 14:09:00,33.6,31.3,30.14,NE,45,0.0,1.0,91,0.00,,,0.00,Weather View 32 v70,2013-01-31 23:09:00,
2013-01-31 14:14:00,33.6,31.3,30.14,NE,45,0.0,1.0,91,0.00,,,0.00,Weather View 32 v70,2013-01-31 23:14:00,
2013-01-31 14:19:00,33.6,31.0,30.14,NE,45,0.0,1.0,90,0.00,,,0.00,Weather View 32 v70,2013-01-31 23:19:00,
2013-01-31 14:24:00,33.4,30.8,30.14,NE,45,0.0,0.0,90,0.00,,,0.00,Weather View 32 v70,2013-01-31 23:24:00,
2013-01-31 14:29:00,33.6,31.0,30.14,NE,45,0.0,0.0,90,0.00,,,0.00,Weather View 32 v70,2013-01-31 23:29:00,
2013-01-31 14:34:00,33.4,30.8,30.14,NE,45,0.0,0.0,90,0.00,,,0.00,Weather View 32 v70,2013-01-31 23:34:00,
2013-01-31 14:39:00,33.4,30.8,30.14,NE,45,0.0,0.0,90,0.00,,,0.00,Weather View 32 v70,2013-01-31 23:39:00,
2013-01-31 14:44:00,33.6,31.0,30.14,NE,45,0.0,0.0,90,0.00,,,0.00,Weather View 32 v70,2013-01-31 23:44:00,
2013-01-31 14:49:00,33.6,31.0,30.14,NE,45,0.0,0.0,90,0.00,,,0.00,Weather View 32 v70,2013-01-31 23:49:00,
2013-01-31 14:54:00,33.4,30.8,30.14,NE,45,0.0,0.0,90,0.00,,,0.00,Weather View 32 v70,2013-01-31 23:54:00,
2013-01-31 14:59:00,33.4,30.8,30.14,NE,45,0.0,0.0,90,0.00,,,0.00,Weather View 32 v70,2013-01-31 23:59:00,
2013-01-31 15:04:00,33.4,31.1,30.15,NE,45,0.0,0.0,91,0.00,,,0.00,Weather View 32 v70,2013-02-01 00:04:00,
2013-01-31 15:09:00,33.4,31.1,30.15,NE,45,0.0,0.0,91,0.00,,,0.00,Weather View 32 v70,2013-02-01 00:09:00,
2013-01-31 15:14:00,33.4,31.1,30.15,NE,45,0.0,0.0,91,0.00,,,0.00,Weather View 32 v70,2013-02-01 00:14:00,
2013-01-31 15:19:00,33.3,30.9,30.15,NE,45,1.0,1.0,91,0.00,,,0.00,Weather View 32 v70,2013-02-01 00:19:00,
2013-01-31 15:24:00,33.1,30.7,30.15,NE,45,1.0,1.0,91,0.00,,,0.00,Weather View 32 v70,2013-02-01 00:24:00,
2013-01-31 15:29:00,32.9,30.6,30.15,NE,45,0.0,1.0,91,0.00,,,0.00,Weather View 32 v70,2013-02-01 00:29:00,
2013-01-31 15:34:00,32.9,30.6,30.15,NE,45,0.0,1.0,91,0.00,,,0.00,Weather View 32 v70,2013-02-01 00:34:00,
2013-01-31 15:39:00,32.9,30.6,30.15,NE,45,0.0,1.0,91,0.00,,,0.00,Weather View 32 v70,2013-02-01 00:39:00,
2013-01-31 15:44:00,33.3,30.9,30.15,NE,45,0.0,1.0,91,0.00,,,0.00,Weather View 32 v70,2013-02-01 00:44:00,
2013-01-31 15:49:00,33.3,30.9,30.15,NE,45,1.0,1.0,91,0.00,,,0.00,Weather View 32 v70,2013-02-01 00:49:00,
2013-01-31 15:54:00,32.9,30.6,30.15,NE,45,1.0,1.0,91,0.00,,,0.00,Weather View 32 v70,2013-02-01 00:54:00,
2013-01-31 15:59:00,32.9,30.6,30.15,NE,45,1.0,1.0,91,0.00,,,0.00,Weather View 32 v70,2013-02-01 00:59:00,
2013-01-31 16:04:00,32.9,30.6,30.15,NE,45,0.0,1.0,91,0.00,,,0.00,Weather View 32 v70,2013-02-01 01:04:00,
2013-01-31 16:09:00,32.7,30.4,30.15,NE,45,0.0,1.0,91,0.00,,,0.00,Weather View 32 v70,2013-02-01 01:09:00,
2013-01-31 16:14:00,32.7,30.4,30.15,NE,45,0.0,1.0,91,0.00,,,0.00,Weather View 32 v70,2013-02-01 01:14:00,
2013-01-31 16:19:00,32.9,30.6,30.15,NE,45,1.0,1.0,91,0.00,,,0.00,Weather View 32 v70,2013-02-01 01:19:00,
2013-01-31 16:24:00,32.7,30.4,30.15,NE,45,1.0,1.0,91,0.00,,,0.00,Weather View 32 v70,2013-02-01 01:24:00,
2013-01-31 16:29:00,32.7,30.4,30.15,NE,45,1.0,1.0,91,0.00,,,0.00,Weather View 32 v70,2013-02-01 01:29:00,
2013-01-31 16:34:00,32.7,30.4,30.15,NE,45,1.0,1.0,91,0.00,,,0.00,Weather View 32 v70,2013-02-01 01:34:00,
2013-01-31 16:39:00,32.5,30.5,30.15,NE,45,1.0,1.0,92,0.00,,,0.00,Weather View 32 v70,2013-02-01 01:39:00,
2013-01-31 16:44:00,32.4,30.3,30.13,NE,45,2.0,2.0,92,0.00,,,0.00,Weather View 32 v70,2013-02-01 01:44:00,
2013-01-31 16:49:00,32.2,30.1,30.13,NE,45,2.0,2.0,92,0.00,,,0.00,Weather View 32 v70,2013-02-01 01:49:00,
2013-01-31 16:54:00,32.0,29.9,30.13,NE,45,2.0,2.0,92,0.00,,,0.00,Weather View 32 v70,2013-02-01 01:54:00,
2013-01-31 16:59:00,32.0,29.9,30.13,NE,45,2.0,2.0,92,0.00,,,0.00,Weather View 32 v70,2013-02-01 01:59:00,
2013-01-31 17:04:00,32.2,30.1,30.15,NE,45,2.0,2.0,92,0.00,,,0.00,Weather View 32 v70,2013-02-01 02:04:00,
2013-01-31 17:09:00,31.8,29.8,30.15,NE,45,2.0,2.0,92,0.00,,,0.00,Weather View 32 v70,2013-02-01 02:09:00,
2013-01-31 17:14:00,31.8,29.8,30.15,NE,45,1.0,2.0,92,0.00,,,0.00,Weather View 32 v70,2013-02-01 02:14:00,
2013-01-31 17:19:00,31.8,29.8,30.15,NE,45,1.0,2.0,92,0.00,,,0.00,Weather View 32 v70,2013-02-01 02:19:00,
2013-01-31 17:24:00,31.8,29.8,30.14,NE,45,2.0,2.0,92,0.00,,,0.00,Weather View 32 v70,2013-02-01 02:24:00,
2013-01-31 17:29:00,31.8,29.8,30.14,NE,45,2.0,2.0,92,0.00,,,0.00,Weather View 32 v70,2013-02-01 02:29:00,
2013-01-31 17:34:00,31.5,29.4,30.14,NE,45,2.0,2.0,92,0.00,,,0.00,Weather View 32 v70,2013-02-01 02:34:00,
2013-01-31 17:39:00,31.5,29.4,30.14,NE,45,2.0,2.0,92,0.00,,,0.00,Weather View 32 v70,2013-02-01 02:39:00,
2013-01-31 17:44:00,31.5,29.4,30.11,NE,45,2.0,2.0,92,0.00,,,0.00,Weather View 32 v70,2013-02-01 02:44:00,
2013-01-31 17:49:00,31.5,29.4,30.11,NE,45,2.0,2.0,92,0.00,,,0.00,Weather View 32 v70,2013-02-01 02:49:00,
2013-01-31 17:54:00,31.5,29.4,30.11,NE,45,1.0,2.0,92,0.00,,,0.00,Weather View 32 v70,2013-02-01 02:54:00,
2013-01-31 17:59:00,31.5,29.4,30.11,NE,45,1.0,2.0,92,0.00,,,0.00,Weather View 32 v70,2013-02-01 02:59:00,
2013-01-31 18:04:00,31.5,29.4,30.11,NE,45,1.0,2.0,92,0.00,,,0.00,Weather View 32 v70,2013-02-01 03:04:00,
2013-01-31 18:09:00,31.5,29.4,30.11,NE,45,1.0,2.0,92,0.00,,,0.00,Weather View 32 v70,2013-02-01 03:09:00,
2013-01-31 18:14:00,31.3,29.2,30.11,NE,45,1.0,2.0,92,0.00,,,0.00,Weather View 32 v70,2013-02-01 03:14:00,
2013-01-31 18:19:00,31.3,29.2,30.11,NE,45,2.0,2.0,92,0.00,,,0.00,Weather View 32 v70,2013-02-01 03:19:00,
2013-01-31 18:24:00,31.1,29.0,30.12,NE,45,2.0,2.0,92,0.00,,,0.00,Weather View 32 v70,2013-02-01 03:24:00,
2013-01-31 18:29:00,31.1,29.3,30.12,NE,45,2.0,2.0,93,0.00,,,0.00,Weather View 32 v70,2013-02-01 03:29:00,
2013-01-31 18:34:00,31.1,29.3,30.12,NE,45,2.0,2.0,93,0.00,,,0.00,Weather View 32 v70,2013-02-01 03:34:00,
2013-01-31 18:39:00,31.1,29.3,30.12,NE,45,3.0,3.0,93,0.00,,,0.00,Weather View 32 v70,2013-02-01 03:39:00,
2013-01-31 18:44:00,30.7,29.0,30.11,NE,45,3.0,3.0,93,0.00,,,0.00,Weather View 32 v70,2013-02-01 03:44:00,
2013-01-31 18:49:00,30.7,29.0,30.11,NE,45,2.0,3.0,93,0.00,,,0.00,Weather View 32 v70,2013-02-01 03:49:00,
2013-01-31 18:54:00,30.6,28.8,30.11,NE,45,2.0,3.0,93,0.00,,,0.00,Weather View 32 v70,2013-02-01 03:54:00,
2013-01-31 18:59:00,30.6,28.8,30.11,NE,45,2.0,3.0,93,0.00,,,0.00,Weather View 32 v70,2013-02-01 03:59:00,
2013-01-31 19:04:00,30.4,28.6,30.11,NE,45,2.0,3.0,93,0.00,,,0.00,Weather View 32 v70,2013-02-01 04:04:00,
2013-01-31 19:09:00,30.4,28.6,30.11,NE,45,2.0,3.0,93,0.00,,,0.00,Weather View 32 v70,2013-02-01 04:09:00,
2013-01-31 19:14:00,30.0,28.2,30.11,NE,45,3.0,3.0,93,0.00,,,0.00,Weather View 32 v70,2013-02-01 04:14:00,
2013-01-31 19:19:00,29.8,28.1,30.11,NE,45,3.0,3.0,93,0.00,,,0.00,Weather View 32 v70,2013-02-01 04:19:00,
2013-01-31 19:24:00,30.0,28.2,30.11,NE,45,2.0,3.0,93,0.00,,,0.00,Weather View 32 v70,2013-02-01 04:24:00,
2013-01-31 19:29:00,29.7,27.9,30.11,NE,45,2.0,3.0,93,0.00,,,0.00,Weather View 32 v70,2013-02-01 04:29:00,
2013-01-31 19:34:00,29.5,27.7,30.11,NE,45,2.0,3.0,93,0.00,,,0.00,Weather View 32 v70,2013-02-01 04:34:00,
2013-01-31 19:39:00,29.7,27.9,30.11,NE,45,1.0,3.0,93,0.00,,,0.00,Weather View 32 v70,2013-02-01 04:39:00,
2013-01-31 19:44:00,29.3,27.5,30.12,NE,45,1.0,3.0,93,0.00,,,0.00,Weather View 32 v70,2013-02-01 04:44:00,
2013-01-31 19:49:00,29.3,27.5,30.12,NE,45,1.0,3.0,93,0.00,,,0.00,Weather View 32 v70,2013-02-01 04:49:00,
2013-01-31 19:54:00,29.1,27.3,30.12,NE,45,2.0,3.0,93,0.00,,,0.00,Weather View 32 v70,2013-02-01 04:54:00,
2013-01-31 20:00:00,29.1,27.3,30.12,NE,45,1.0,3.0,93,0.00,,,0.00,Weather View 32 v70,2013-02-01 05:00:00,
2013-01-31 20:02:00,28.9,27.2,30.12,NE,45,1.0,3.0,93,0.00,,,0.00,Weather View 32 v70,2013-02-01 05:02:00,
2013-01-31 20:03:00,28.9,27.2,30.12,NE,45,1.0,3.0,93,0.00,,,0.00,Weather View 32 v70,2013-02-01 05:03:00,
2013-01-31 20:08:00,28.9,27.2,30.13,NE,45,1.0,3.0,93,0.00,,,0.00,Weather View 32 v70,2013-02-01 05:08:00,
2013-01-31 20:13:00,28.9,27.2,30.13,NE,45,1.0,3.0,93,0.00,,,0.00,Weather View 32 v70,2013-02-01 05:13:00,
2013-01-31 20:18:00,28.9,27.2,30.13,NE,45,1.0,3.0,93,0.00,,,0.00,Weather View 32 v70,2013-02-01 05:18:00,
2013-01-31 20:23:00,28.9,27.2,30.13,NE,45,1.0,3.0,93,0.00,,,0.00,Weather View 32 v70,2013-02-01 05:23:00,
2013-01-31 20:28:00,28.9,27.2,30.13,NE,45,1.0,2.0,93,0.00,,,0.00,Weather View 32 v70,2013-02-01 05:28:00,
2013-01-31 20:33:00,28.9,27.2,30.13,NE,45,1.0,2.0,93,0.00,,,0.00,Weather View 32 v70,2013-02-01 05:33:00,
2013-01-31 20:38:00,28.9,27.2,30.13,NE,45,0.0,2.0,93,0.00,,,0.00,Weather View 32 v70,2013-02-01 05:38:00,
2013-01-31 20:43:00,28.9,27.2,30.13,NE,45,0.0,2.0,93,0.00,,,0.00,Weather View 32 v70,2013-02-01 05:43:00,
2013-01-31 20:48:00,28.9,27.2,30.12,NE,45,1.0,2.0,93,0.00,,,0.00,Weather View 32 v70,2013-02-01 05:48:00,
2013-01-31 20:53:00,28.9,27.2,30.12,NE,45,1.0,2.0,93,0.00,,,0.00,Weather View 32 v70,2013-02-01 05:53:00,
2013-01-31 20:58:00,28.9,27.2,30.12,NE,45,2.0,2.0,93,0.00,,,0.00,Weather View 32 v70,2013-02-01 05:58:00,
2013-01-31 21:03:00,28.6,26.8,30.12,NE,45,2.0,2.0,93,0.00,,,0.00,Weather View 32 v70,2013-02-01 06:03:00,
2013-01-31 21:08:00,28.6,26.8,30.13,NE,45,2.0,2.0,93,0.00,,,0.00,Weather View 32 v70,2013-02-01 06:08:00,
2013-01-31 21:13:00,28.6,26.8,30.13,NE,45,2.0,2.0,93,0.00,,,0.00,Weather View 32 v70,2013-02-01 06:13:00,
2013-01-31 21:18:00,28.4,26.6,30.13,NE,45,3.0,3.0,93,0.00,,,0.00,Weather View 32 v70,2013-02-01 06:18:00,
2013-01-31 21:23:00,28.6,26.8,30.13,NE,45,3.0,3.0,93,0.00,,,0.00,Weather View 32 v70,2013-02-01 06:23:00,
2013-01-31 21:28:00,28.4,26.6,30.13,NE,45,3.0,3.0,93,0.00,,,0.00,Weather View 32 v70,2013-02-01 06:28:00,
2013-01-31 21:33:00,28.4,26.6,30.13,NE,45,3.0,3.0,93,0.00,,,0.00,Weather View 32 v70,2013-02-01 06:33:00,
2013-01-31 21:38:00,28.6,26.8,30.13,NE,45,3.0,3.0,93,0.00,,,0.00,Weather View 32 v70,2013-02-01 06:38:00,
2013-01-31 21:43:00,28.6,26.8,30.13,NE,45,3.0,3.0,93,0.00,,,0.00,Weather View 32 v70,2013-02-01 06:43:00,
2013-01-31 21:48:00,28.9,27.2,30.13,NE,45,2.0,3.0,93,0.00,,,0.00,Weather View 32 v70,2013-02-01 06:48:00,
2013-01-31 21:53:00,28.9,27.2,30.13,NE,45,2.0,3.0,93,0.00,,,0.00,Weather View 32 v70,2013-02-01 06:53:00,
2013-01-31 21:58:00,28.9,27.2,30.13,NE,45,3.0,3.0,93,0.00,,,0.00,Weather View 32 v70,2013-02-01 06:58:00,
2013-01-31 22:03:00,29.1,27.3,30.13,NE,45,3.0,3.0,93,0.00,,,0.00,Weather View 32 v70,2013-02-01 07:03:00,
2013-01-31 22:08:00,29.3,27.5,30.13,NE,45,2.0,3.0,93,0.00,,,0.00,Weather View 32 v70,2013-02-01 07:08:00,
2013-01-31 22:13:00,29.3,27.5,30.13,NE,45,2.0,3.0,93,0.00,,,0.00,Weather View 32 v70,2013-02-01 07:13:00,
2013-01-31 22:18:00,29.3,27.5,30.13,NE,45,2.0,3.0,93,0.00,,,0.00,Weather View 32 v70,2013-02-01 07:18:00,
2013-01-31 22:23:00,29.7,27.9,30.13,NE,45,2.0,3.0,93,0.00,,,0.00,Weather View 32 v70,2013-02-01 07:23:00,
2013-01-31 22:28:00,29.7,27.9,30.14,NE,45,2.0,3.0,93,0.00,,,0.00,Weather View 32 v70,2013-02-01 07:28:00,
2013-01-31 22:33:00,29.7,27.9,30.14,NE,45,3.0,3.0,93,0.00,,,0.00,Weather View 32 v70,2013-02-01 07:33:00,
2013-01-31 22:38:00,29.7,27.9,30.14,NE,45,3.0,3.0,93,0.00,,,0.00,Weather View 32 v70,2013-02-01 07:38:00,
2013-01-31 22:43:00,29.7,27.9,30.14,NE,45,2.0,3.0,93,0.00,,,0.00,Weather View 32 v70,2013-02-01 07:43:00,
2013-01-31 22:48:00,29.7,27.9,30.14,NE,45,2.0,3.0,93,0.00,,,0.00,Weather View 32 v70,2013-02-01 07:48:00,
2013-01-31 22:53:00,29.7,27.9,30.14,NE,45,2.0,3.0,93,0.00,,,0.00,Weather View 32 v70,2013-02-01 07:53:00,
2013-01-31 22:58:00,29.7,27.9,30.14,NE,45,2.0,3.0,93,0.00,,,0.00,Weather View 32 v70,2013-02-01 07:58:00,
2013-01-31 23:03:00,30.0,28.2,30.14,NE,45,3.0,3.0,93,0.00,,,0.00,Weather View 32 v70,2013-02-01 08:03:00,
2013-01-31 23:08:00,29.8,28.1,30.13,NE,45,2.0,3.0,93,0.00,,,0.00,Weather View 32 v70,2013-02-01 08:08:00,
2013-01-31 23:13:00,29.8,28.1,30.13,NE,45,2.0,3.0,93,0.00,,,0.00,Weather View 32 v70,2013-02-01 08:13:00,
2013-01-31 23:18:00,30.0,28.2,30.13,NE,45,3.0,3.0,93,0.00,,,0.00,Weather View 32 v70,2013-02-01 08:18:00,
2013-01-31 23:23:00,30.0,28.2,30.13,NE,45,4.0,4.0,93,0.00,,,0.00,Weather View 32 v70,2013-02-01 08:23:00,
2013-01-31 23:28:00,30.0,28.2,30.13,NE,45,3.0,4.0,93,0.00,,,0.00,Weather View 32 v70,2013-02-01 08:28:00,
2013-01-31 23:33:00,30.0,28.2,30.13,NE,45,3.0,4.0,93,0.00,,,0.00,Weather View 32 v70,2013-02-01 08:33:00,
2013-01-31 23:38:00,30.0,28.5,30.13,NE,45,3.0,4.0,94,0.00,,,0.00,Weather View 32 v70,2013-02-01 08:38:00,
2013-01-31 23:43:00,30.0,28.2,30.13,NE,45,3.0,4.0,93,0.00,,,0.00,Weather View 32 v70,2013-02-01 08:43:00,
2013-01-31 23:48:00,30.0,28.2,30.14,NE,45,3.0,4.0,93,0.00,,,0.00,Weather View 32 v70,2013-02-01 08:48:00,
2013-01-31 23:53:00,30.0,28.5,30.14,NE,45,4.0,4.0,94,0.00,,,0.00,Weather View 32 v70,2013-02-01 08:53:00,
2013-01-31 23:58:00,30.0,28.2,30.14,NE,45,4.0,4.0,93,0.00,,,0.00,Weather View 32 v70,2013-02-01 08:58:00,